createdAt,value
2018-08-07T00:00:52.787Z,21.50
2018-08-07T00:03:21.974Z,21.50
2018-08-07T00:05:51.229Z,21.50
2018-08-07T00:08:20.387Z,21.50
2018-08-07T00:10:49.707Z,21.40
2018-08-07T00:13:18.891Z,21.40
2018-08-07T00:15:49.745Z,21.50
2018-08-07T00:18:19.044Z,21.40
2018-08-07T00:20:48.626Z,21.50
2018-08-07T00:23:17.893Z,21.50
2018-08-07T00:25:47.156Z,21.40
2018-08-07T00:28:16.542Z,21.40
2018-08-07T00:30:45.802Z,21.40
2018-08-07T00:33:15.147Z,21.40
2018-08-07T00:35:45.054Z,21.40
2018-08-07T00:38:14.329Z,21.30
2018-08-07T00:40:43.614Z,21.30
2018-08-07T00:43:14.073Z,21.30
2018-08-07T00:45:43.366Z,21.30
2018-08-07T00:48:12.661Z,21.20
2018-08-07T00:50:42.046Z,21.30
2018-08-07T00:53:11.305Z,21.30
2018-08-07T01:13:45.653Z,21.10
2018-08-07T01:16:14.933Z,21.10
2018-08-07T01:36:40.762Z,21.10
2018-08-07T01:39:11.033Z,21.10
2018-08-07T01:41:40.394Z,21.00
2018-08-07T01:44:11.456Z,20.90
2018-08-07T01:46:40.717Z,20.80
2018-08-07T01:49:10.061Z,20.90
2018-08-07T01:51:39.485Z,20.90
2018-08-07T01:54:09.523Z,20.80
2018-08-07T01:56:38.797Z,20.70
2018-08-07T01:59:08.028Z,20.70
2018-08-07T02:19:41.158Z,20.60
2018-08-07T02:22:11.284Z,20.60
2018-08-07T02:24:40.588Z,20.50
2018-08-07T02:27:09.878Z,20.50
2018-08-07T02:29:39.833Z,20.50
2018-08-07T02:32:09.342Z,20.60
2018-08-07T02:34:39.259Z,20.60
2018-08-07T02:37:08.933Z,20.50
2018-08-07T02:57:42.136Z,20.40
2018-08-07T03:00:14.510Z,20.40
2018-08-07T03:02:43.983Z,20.40
2018-08-07T03:05:14.043Z,20.30
2018-08-07T03:07:44.043Z,20.40
2018-08-07T03:10:13.793Z,20.40
2018-08-07T03:12:43.118Z,20.40
2018-08-07T03:33:16.027Z,20.20
2018-08-07T03:35:45.245Z,20.20
2018-08-07T03:38:14.540Z,20.30
2018-08-07T03:40:43.930Z,20.30
2018-08-07T03:43:13.182Z,20.40
2018-08-07T03:45:42.482Z,20.30
2018-08-07T03:48:11.813Z,20.40
2018-08-07T03:50:41.821Z,20.40
2018-08-07T03:53:11.165Z,20.30
2018-08-07T04:13:44.834Z,20.30
2018-08-07T04:16:14.258Z,20.30
2018-08-07T04:18:44.581Z,20.30
2018-08-07T04:39:19.250Z,20.40
2018-08-07T04:41:48.586Z,20.40
2018-08-07T04:44:18.460Z,20.40
2018-08-07T05:04:52.530Z,20.60
2018-08-07T05:25:26.249Z,20.70
2018-08-07T05:27:55.589Z,20.70
2018-08-07T05:30:24.914Z,20.80
2018-08-07T05:32:54.204Z,20.90
2018-08-07T05:35:23.661Z,21.00
2018-08-07T05:37:53.612Z,21.00
2018-08-07T05:58:26.683Z,21.40
2018-08-07T06:00:55.941Z,21.50
2018-08-07T06:03:25.154Z,21.60
2018-08-07T06:05:54.586Z,21.60
2018-08-07T06:08:23.899Z,21.70
2018-08-07T06:10:53.126Z,21.60
2018-08-07T06:13:22.510Z,21.70
2018-08-07T06:15:53.024Z,21.70
2018-08-07T06:18:22.466Z,21.70
2018-08-07T06:20:51.861Z,21.60
2018-08-07T06:25:51.138Z,21.50
2018-08-07T06:46:25.757Z,21.70
2018-08-07T06:48:56.586Z,21.70
2018-08-07T06:51:25.849Z,21.70
2018-08-07T06:53:55.186Z,21.60
2018-08-07T06:56:24.491Z,21.50
2018-08-07T06:58:53.777Z,21.60
2018-08-07T07:01:23.075Z,21.70
2018-08-07T07:03:52.322Z,21.70
2018-08-07T07:24:26.080Z,22.50
2018-08-07T07:26:56.640Z,22.50
2018-08-07T07:29:25.852Z,22.40
2018-08-07T07:31:55.854Z,22.50
2018-08-07T07:34:25.186Z,22.60
2018-08-07T07:36:55.091Z,22.70
2018-08-07T07:57:30.349Z,23.30
2018-08-07T08:00:00.282Z,23.30
2018-08-07T08:02:30.274Z,23.40
2018-08-07T08:04:59.694Z,23.40
2018-08-07T08:07:28.932Z,23.40
2018-08-07T08:09:58.785Z,23.50
2018-08-07T08:12:28.043Z,23.50
2018-08-07T08:17:26.380Z,23.60
2018-08-07T08:19:55.668Z,23.60
2018-08-07T08:40:31.144Z,23.90
2018-08-07T08:43:01.854Z,24.10
2018-08-07T09:03:36.457Z,25.30
2018-08-07T09:24:10.221Z,25.10
2018-08-07T09:26:39.516Z,25.00
2018-08-07T09:47:08.278Z,25.00
2018-08-07T09:49:39.318Z,25.10
2018-08-07T09:52:08.830Z,25.20
2018-08-07T10:12:42.652Z,26.00
2018-08-07T10:15:12.408Z,26.10
2018-08-07T10:17:42.452Z,26.30
2018-08-07T10:20:12.400Z,26.40
2018-08-07T10:22:42.245Z,26.60
2018-08-07T10:25:13.558Z,26.60
2018-08-07T10:45:40.234Z,27.90
2018-08-07T10:48:09.682Z,28.00
2018-08-07T10:50:39.115Z,27.90
2018-08-07T10:53:08.486Z,27.80
2018-08-07T10:55:37.725Z,27.70
2018-08-07T10:58:08.018Z,27.70
2018-08-07T11:00:37.307Z,27.80
2018-08-07T11:03:07.847Z,28.00
2018-08-07T11:05:37.194Z,28.10
2018-08-07T11:08:07.150Z,28.20
2018-08-07T11:10:36.461Z,28.20
2018-08-07T11:13:06.382Z,28.40
2018-08-07T11:15:36.234Z,28.50
2018-08-07T11:18:06.025Z,28.80
2018-08-07T11:20:35.233Z,28.90
2018-08-07T11:41:10.470Z,29.50
2018-08-07T12:01:44.862Z,29.40
2018-08-07T12:04:14.176Z,29.50
2018-08-07T12:06:44.640Z,29.50
2018-08-07T12:09:13.936Z,29.60
2018-08-07T12:11:43.249Z,29.60
2018-08-07T12:14:12.521Z,29.70
2018-08-07T12:16:41.967Z,29.80
2018-08-07T12:19:11.363Z,29.90
2018-08-07T12:39:46.593Z,30.90
2018-08-07T13:00:21.846Z,30.80
2018-08-07T13:02:51.278Z,30.80
2018-08-07T13:05:21.749Z,31.00
2018-08-07T13:07:51.161Z,31.00
2018-08-07T13:10:21.729Z,31.00
2018-08-07T13:12:52.002Z,31.10
2018-08-07T13:15:21.909Z,31.00
2018-08-07T13:17:51.433Z,30.70
2018-08-07T13:20:20.953Z,30.50
2018-08-07T13:22:50.917Z,30.30
2018-08-07T13:25:21.518Z,30.00
2018-08-07T13:45:56.679Z,29.10
2018-08-07T13:48:26.554Z,29.20
2018-08-07T14:09:09.167Z,28.80
2018-08-07T14:11:39.037Z,28.70
2018-08-07T14:14:08.357Z,28.60
2018-08-07T14:16:37.742Z,28.60
2018-08-07T14:19:07.737Z,28.60
2018-08-07T14:21:37.198Z,28.50
2018-08-07T14:42:11.027Z,29.20
2018-08-07T14:44:40.796Z,29.30
2018-08-07T14:47:10.099Z,29.40
2018-08-07T15:07:46.494Z,29.90
2018-08-07T15:10:18.801Z,29.80
2018-08-07T15:30:53.057Z,29.50
2018-08-07T15:33:22.526Z,29.50
2018-08-07T15:35:51.803Z,29.50
2018-08-07T15:38:21.803Z,29.50
2018-08-07T15:40:51.085Z,29.40
2018-08-07T15:43:21.358Z,29.40
2018-08-07T15:45:50.864Z,29.80
2018-08-07T16:06:24.596Z,28.30
2018-08-07T16:08:53.825Z,28.10
2018-08-07T16:11:23.146Z,27.90
2018-08-07T16:13:53.832Z,27.80
2018-08-07T16:16:23.183Z,27.70
2018-08-07T16:18:53.443Z,27.70
2018-08-07T16:21:23.579Z,27.70
2018-08-07T16:23:52.940Z,27.60
2018-08-07T16:44:27.875Z,27.40
2018-08-07T16:46:57.525Z,27.40
2018-08-07T16:49:26.941Z,27.30
2018-08-07T17:10:00.982Z,27.00
2018-08-07T17:12:30.242Z,27.00
2018-08-07T17:15:00.254Z,27.00
2018-08-07T17:17:30.158Z,27.00
2018-08-07T17:19:59.463Z,27.00
2018-08-07T17:22:28.933Z,26.90
2018-08-07T17:24:58.535Z,26.90
2018-08-07T17:45:30.861Z,27.20
2018-08-07T17:48:00.113Z,27.20
2018-08-07T17:50:29.981Z,27.20
2018-08-07T18:11:03.444Z,26.80
2018-08-07T18:13:32.724Z,26.80
2018-08-07T18:16:02.035Z,26.70
2018-08-07T18:18:31.434Z,26.60
2018-08-07T18:21:00.743Z,26.50
2018-08-07T18:23:31.002Z,26.40
2018-08-07T18:26:01.237Z,26.30
2018-08-07T18:28:31.208Z,26.30
2018-08-07T18:31:00.761Z,26.20
2018-08-07T18:33:30.014Z,26.00
2018-08-07T18:35:59.957Z,25.90
2018-08-07T18:56:33.423Z,25.40
2018-08-07T18:59:03.228Z,25.40
2018-08-07T19:19:37.103Z,24.80
2018-08-07T19:40:13.885Z,24.30
2018-08-07T19:42:43.878Z,24.30
2018-08-07T20:03:17.485Z,24.00
2018-08-07T20:05:47.326Z,24.00
2018-08-07T20:08:16.535Z,23.90
2018-08-07T20:10:46.505Z,23.80
2018-08-07T20:13:16.066Z,23.70
2018-08-07T20:15:45.465Z,23.70
2018-08-07T20:36:19.613Z,23.30
2018-08-07T20:38:49.498Z,23.30
2018-08-07T20:41:18.778Z,23.30
2018-08-07T21:01:54.050Z,23.10
2018-08-07T21:04:24.101Z,23.10
2018-08-07T21:06:54.577Z,23.10
2018-08-07T21:09:24.394Z,23.10
2018-08-07T21:11:53.676Z,23.10
2018-08-07T21:14:22.909Z,23.00
2018-08-07T21:16:53.216Z,23.00
2018-08-07T21:19:23.538Z,23.10
2018-08-07T21:21:52.857Z,23.00
2018-08-07T21:24:22.649Z,22.90
2018-08-07T21:26:53.650Z,22.90
2018-08-07T21:29:23.072Z,22.90
2018-08-07T21:31:52.274Z,22.90
2018-08-07T21:34:22.797Z,22.90
2018-08-07T21:36:52.650Z,22.90
2018-08-07T21:39:21.894Z,22.90
2018-08-07T21:41:51.379Z,22.80
2018-08-07T21:44:20.657Z,22.70
2018-08-07T21:46:49.969Z,22.70
2018-08-07T21:49:19.344Z,22.60
2018-08-07T21:51:49.283Z,22.60
2018-08-07T21:54:18.796Z,22.50
2018-08-07T21:56:48.105Z,22.40
2018-08-07T21:59:18.092Z,22.50
2018-08-07T22:01:47.369Z,22.50
2018-08-07T22:22:23.138Z,22.30
2018-08-07T22:24:52.395Z,22.20
2018-08-07T22:27:22.281Z,22.20
2018-08-07T22:29:51.462Z,22.20
2018-08-07T22:32:20.786Z,22.10
2018-08-07T22:34:51.120Z,22.10
2018-08-07T22:37:20.424Z,22.00
2018-08-07T22:39:49.971Z,21.90
2018-08-07T22:42:19.300Z,22.00
2018-08-07T22:44:48.561Z,21.90
2018-08-07T22:47:18.053Z,21.80
2018-08-07T22:49:49.141Z,21.80
2018-08-07T22:52:18.451Z,21.80
2018-08-07T22:54:47.794Z,21.70
2018-08-07T22:57:17.052Z,21.60
2018-08-07T22:59:47.122Z,21.60
2018-08-07T23:02:16.606Z,21.60
2018-08-07T23:04:45.887Z,21.70
2018-08-07T23:07:15.602Z,21.70
2018-08-07T23:09:44.784Z,21.60
2018-08-07T23:12:15.012Z,21.60
2018-08-07T23:14:44.511Z,21.50
2018-08-07T23:17:13.935Z,21.40
2018-08-07T23:19:43.185Z,21.30
2018-08-07T23:22:12.475Z,21.20
2018-08-07T23:24:41.993Z,21.20
2018-08-07T23:27:11.613Z,21.10
2018-08-07T23:29:40.886Z,21.10
2018-08-07T23:32:10.169Z,21.10
2018-08-07T23:34:39.370Z,21.10
2018-08-07T23:37:08.598Z,21.10
2018-08-07T23:39:37.837Z,21.20
2018-08-07T23:42:09.227Z,21.20
2018-08-07T23:44:39.279Z,21.30
2018-08-07T23:47:08.551Z,21.40
2018-08-07T23:49:39.410Z,21.50
2018-08-07T23:52:08.869Z,21.40
2018-08-07T23:54:38.101Z,21.30
2018-08-07T23:57:07.549Z,21.30
2018-08-07T23:59:36.835Z,21.40
